Airport Name : Guwahati Intl

Other Name : Guwahati Intl

ICAO : VEGT

IATA : GAU

FAA :

Latitude : 26.106092

Longitude : 91.585939

Country : India

Local Date and Time : 30 May 2024 08:20

 

TAF (Terminal Aerodrome Forecast)

TAF VEGT 300200Z 3003/3012 21005KT 3000 BR FEW020 SCT100 BECMG 3006/3008 30005KT 5000 HZ FEW020

 

METAR (METeorological Aerodrome Report)

VEGT 300230Z 12003KT 3500 BR SCT018 BKN100 30/29 Q1004 NOSIG

VEGT 300200Z 01003KT 3000 BR SCT018 BKN100 28/28 Q1004 NOSIG

VEGT 300130Z 36004KT 3000 BR SCT018 BKN100 28/27 Q1004 NOSIG

VEGT 300101Z 36005KT 3000 BR SCT018 BKN100 29/28 Q1003 NOSIG

VEGT 300030Z 02006KT 3000 BR SCT018 BKN090 28/27 Q1002 NOSIG

VEGT 300000Z 01006KT 3000 BR SCT018 BKN090 26/26 Q1002 NOSIG

VEGT 292330Z 03006KT 3000 BR SCT018 BKN090 26/25 Q1001 NOSIG

VEGT 292300Z 03002KT 3000 BR SCT018 BKN090 26/26 Q1001 NOSIG